sensor_id;sensor_type;location;lat;lon;timestamp;P1;durP1;ratioP1;P2;durP2;ratioP2
20976;SDS011;10647;51.016;3.720;2023-05-19T00:01:16;15.60;;;8.47;;
20976;SDS011;10647;51.016;3.720;2023-05-19T00:09:51;19.77;;;8.63;;
20976;SDS011;10647;51.016;3.720;2023-05-19T00:12:25;15.87;;;8.10;;
20976;SDS011;10647;51.016;3.720;2023-05-19T00:14:59;15.77;;;8.27;;
20976;SDS011;10647;51.016;3.720;2023-05-19T00:17:32;17.97;;;8.43;;
20976;SDS011;10647;51.016;3.720;2023-05-19T00:22:33;17.13;;;8.47;;
20976;SDS011;10647;51.016;3.720;2023-05-19T00:25:01;18.80;;;8.07;;
20976;SDS011;10647;51.016;3.720;2023-05-19T00:27:31;15.27;;;8.40;;
20976;SDS011;10647;51.016;3.720;2023-05-19T00:29:58;15.10;;;7.77;;
20976;SDS011;10647;51.016;3.720;2023-05-19T00:35:05;16.97;;;8.03;;
20976;SDS011;10647;51.016;3.720;2023-05-19T00:37:34;15.53;;;8.17;;
20976;SDS011;10647;51.016;3.720;2023-05-19T00:42:39;18.27;;;8.63;;
20976;SDS011;10647;51.016;3.720;2023-05-19T00:45:09;17.83;;;8.67;;
20976;SDS011;10647;51.016;3.720;2023-05-19T00:47:42;19.73;;;8.60;;
20976;SDS011;10647;51.016;3.720;2023-05-19T00:50:10;22.97;;;9.80;;
20976;SDS011;10647;51.016;3.720;2023-05-19T00:52:38;19.63;;;9.50;;
20976;SDS011;10647;51.016;3.720;2023-05-19T00:55:05;19.77;;;9.87;;
20976;SDS011;10647;51.016;3.720;2023-05-19T00:57:35;18.10;;;10.83;;
20976;SDS011;10647;51.016;3.720;2023-05-19T01:00:03;23.67;;;11.10;;
20976;SDS011;10647;51.016;3.720;2023-05-19T01:02:52;24.47;;;10.63;;
20976;SDS011;10647;51.016;3.720;2023-05-19T01:05:20;22.60;;;11.50;;
20976;SDS011;10647;51.016;3.720;2023-05-19T01:07:48;22.07;;;11.37;;
20976;SDS011;10647;51.016;3.720;2023-05-19T01:10:18;22.80;;;12.30;;
20976;SDS011;10647;51.016;3.720;2023-05-19T01:12:46;21.73;;;11.17;;
20976;SDS011;10647;51.016;3.720;2023-05-19T01:15:14;23.60;;;12.03;;
20976;SDS011;10647;51.016;3.720;2023-05-19T01:17:47;23.50;;;11.53;;
20976;SDS011;10647;51.016;3.720;2023-05-19T01:20:18;25.03;;;12.27;;
20976;SDS011;10647;51.016;3.720;2023-05-19T01:23:22;22.60;;;11.63;;
20976;SDS011;10647;51.016;3.720;2023-05-19T01:29:30;26.53;;;12.47;;
20976;SDS011;10647;51.016;3.720;2023-05-19T01:31:58;27.27;;;12.03;;
20976;SDS011;10647;51.016;3.720;2023-05-19T01:34:26;27.03;;;12.73;;
20976;SDS011;10647;51.016;3.720;2023-05-19T01:36:55;23.40;;;12.83;;
20976;SDS011;10647;51.016;3.720;2023-05-19T01:39:25;25.07;;;12.67;;
20976;SDS011;10647;51.016;3.720;2023-05-19T01:41:53;29.80;;;12.87;;
20976;SDS011;10647;51.016;3.720;2023-05-19T01:44:28;25.87;;;13.30;;
20976;SDS011;10647;51.016;3.720;2023-05-19T01:46:58;25.87;;;13.47;;
20976;SDS011;10647;51.016;3.720;2023-05-19T01:49:27;26.67;;;14.17;;
20976;SDS011;10647;51.016;3.720;2023-05-19T01:51:55;28.50;;;12.83;;
20976;SDS011;10647;51.016;3.720;2023-05-19T01:54:24;27.27;;;12.67;;
20976;SDS011;10647;51.016;3.720;2023-05-19T02:03:16;23.97;;;11.23;;
20976;SDS011;10647;51.016;3.720;2023-05-19T02:06:12;21.63;;;10.57;;
20976;SDS011;10647;51.016;3.720;2023-05-19T02:08:56;20.73;;;11.07;;
20976;SDS011;10647;51.016;3.720;2023-05-19T02:11:36;19.67;;;9.87;;
20976;SDS011;10647;51.016;3.720;2023-05-19T02:14:07;20.43;;;10.30;;
20976;SDS011;10647;51.016;3.720;2023-05-19T02:16:48;23.03;;;9.33;;
20976;SDS011;10647;51.016;3.720;2023-05-19T02:19:28;19.60;;;10.27;;
20976;SDS011;10647;51.016;3.720;2023-05-19T02:22:00;18.20;;;9.43;;
20976;SDS011;10647;51.016;3.720;2023-05-19T02:24:27;19.83;;;9.43;;
20976;SDS011;10647;51.016;3.720;2023-05-19T02:26:55;17.50;;;9.60;;
20976;SDS011;10647;51.016;3.720;2023-05-19T02:29:22;18.23;;;9.70;;
20976;SDS011;10647;51.016;3.720;2023-05-19T02:31:50;18.63;;;9.30;;
20976;SDS011;10647;51.016;3.720;2023-05-19T02:34:18;21.37;;;9.37;;
20976;SDS011;10647;51.016;3.720;2023-05-19T02:36:45;19.57;;;8.53;;
20976;SDS011;10647;51.016;3.720;2023-05-19T02:39:14;17.27;;;9.40;;
20976;SDS011;10647;51.016;3.720;2023-05-19T02:41:42;20.00;;;8.80;;
20976;SDS011;10647;51.016;3.720;2023-05-19T02:44:09;23.43;;;9.63;;
20976;SDS011;10647;51.016;3.720;2023-05-19T02:46:37;14.63;;;8.63;;
20976;SDS011;10647;51.016;3.720;2023-05-19T02:49:04;18.00;;;8.53;;
20976;SDS011;10647;51.016;3.720;2023-05-19T02:51:32;15.50;;;8.80;;
20976;SDS011;10647;51.016;3.720;2023-05-19T02:54:00;16.10;;;8.37;;
20976;SDS011;10647;51.016;3.720;2023-05-19T02:56:27;17.50;;;8.43;;
20976;SDS011;10647;51.016;3.720;2023-05-19T02:58:56;20.63;;;9.87;;
20976;SDS011;10647;51.016;3.720;2023-05-19T03:01:23;17.20;;;10.43;;
20976;SDS011;10647;51.016;3.720;2023-05-19T03:03:52;24.97;;;11.37;;
20976;SDS011;10647;51.016;3.720;2023-05-19T03:06:19;23.87;;;11.40;;
20976;SDS011;10647;51.016;3.720;2023-05-19T03:08:48;20.90;;;11.77;;
20976;SDS011;10647;51.016;3.720;2023-05-19T03:11:18;27.03;;;12.23;;
20976;SDS011;10647;51.016;3.720;2023-05-19T03:13:50;22.07;;;10.67;;
20976;SDS011;10647;51.016;3.720;2023-05-19T03:16:18;21.83;;;11.23;;
20976;SDS011;10647;51.016;3.720;2023-05-19T03:18:52;28.47;;;11.73;;
20976;SDS011;10647;51.016;3.720;2023-05-19T03:24:10;21.27;;;11.53;;
20976;SDS011;10647;51.016;3.720;2023-05-19T03:26:40;20.23;;;12.47;;
20976;SDS011;10647;51.016;3.720;2023-05-19T03:29:07;26.47;;;12.47;;
20976;SDS011;10647;51.016;3.720;2023-05-19T03:31:35;28.20;;;12.43;;
20976;SDS011;10647;51.016;3.720;2023-05-19T03:34:08;25.77;;;13.33;;
20976;SDS011;10647;51.016;3.720;2023-05-19T03:36:36;25.87;;;13.13;;
20976;SDS011;10647;51.016;3.720;2023-05-19T03:39:12;28.53;;;13.27;;
20976;SDS011;10647;51.016;3.720;2023-05-19T03:41:41;26.33;;;12.87;;
20976;SDS011;10647;51.016;3.720;2023-05-19T03:44:09;25.43;;;13.30;;
20976;SDS011;10647;51.016;3.720;2023-05-19T03:46:36;24.97;;;12.57;;
20976;SDS011;10647;51.016;3.720;2023-05-19T03:49:05;26.60;;;12.17;;
20976;SDS011;10647;51.016;3.720;2023-05-19T03:54:03;21.97;;;10.53;;
20976;SDS011;10647;51.016;3.720;2023-05-19T03:56:31;22.30;;;10.73;;
20976;SDS011;10647;51.016;3.720;2023-05-19T03:58:58;23.37;;;10.43;;
20976;SDS011;10647;51.016;3.720;2023-05-19T04:01:26;24.93;;;10.63;;
20976;SDS011;10647;51.016;3.720;2023-05-19T04:03:54;21.23;;;9.27;;
20976;SDS011;10647;51.016;3.720;2023-05-19T04:06:21;22.37;;;8.97;;
20976;SDS011;10647;51.016;3.720;2023-05-19T04:08:49;20.57;;;9.30;;
20976;SDS011;10647;51.016;3.720;2023-05-19T04:11:22;20.03;;;8.10;;
20976;SDS011;10647;51.016;3.720;2023-05-19T04:13:55;18.43;;;8.00;;
20976;SDS011;10647;51.016;3.720;2023-05-19T04:18:53;18.87;;;8.20;;
20976;SDS011;10647;51.016;3.720;2023-05-19T04:21:21;20.13;;;8.63;;
20976;SDS011;10647;51.016;3.720;2023-05-19T04:26:19;20.30;;;9.07;;
20976;SDS011;10647;51.016;3.720;2023-05-19T04:28:53;19.43;;;8.10;;
20976;SDS011;10647;51.016;3.720;2023-05-19T04:31:22;19.57;;;8.63;;
20976;SDS011;10647;51.016;3.720;2023-05-19T04:33:51;20.60;;;8.57;;
20976;SDS011;10647;51.016;3.720;2023-05-19T04:36:19;18.10;;;7.97;;
20976;SDS011;10647;51.016;3.720;2023-05-19T04:38:47;18.33;;;7.43;;
20976;SDS011;10647;51.016;3.720;2023-05-19T04:41:16;19.23;;;8.63;;
20976;SDS011;10647;51.016;3.720;2023-05-19T04:43:43;20.90;;;9.17;;
20976;SDS011;10647;51.016;3.720;2023-05-19T04:46:13;18.57;;;8.30;;
20976;SDS011;10647;51.016;3.720;2023-05-19T04:48:40;14.07;;;7.57;;
20976;SDS011;10647;51.016;3.720;2023-05-19T04:51:08;18.87;;;8.00;;
20976;SDS011;10647;51.016;3.720;2023-05-19T04:53:37;18.73;;;8.63;;
20976;SDS011;10647;51.016;3.720;2023-05-19T04:56:06;17.37;;;9.33;;
20976;SDS011;10647;51.016;3.720;2023-05-19T04:58:35;16.10;;;8.33;;
20976;SDS011;10647;51.016;3.720;2023-05-19T05:01:03;22.47;;;8.87;;
20976;SDS011;10647;51.016;3.720;2023-05-19T05:03:30;17.30;;;8.30;;
20976;SDS011;10647;51.016;3.720;2023-05-19T05:06:04;15.10;;;8.43;;
20976;SDS011;10647;51.016;3.720;2023-05-19T05:08:32;17.27;;;8.70;;
20976;SDS011;10647;51.016;3.720;2023-05-19T05:11:00;22.20;;;8.70;;
20976;SDS011;10647;51.016;3.720;2023-05-19T05:13:28;16.33;;;8.53;;
20976;SDS011;10647;51.016;3.720;2023-05-19T05:15:56;18.50;;;8.33;;
20976;SDS011;10647;51.016;3.720;2023-05-19T05:18:24;17.40;;;7.57;;
20976;SDS011;10647;51.016;3.720;2023-05-19T05:20:52;20.87;;;8.97;;
20976;SDS011;10647;51.016;3.720;2023-05-19T05:23:20;14.93;;;7.50;;
20976;SDS011;10647;51.016;3.720;2023-05-19T05:25:47;18.13;;;8.80;;
20976;SDS011;10647;51.016;3.720;2023-05-19T05:28:15;17.63;;;7.73;;
20976;SDS011;10647;51.016;3.720;2023-05-19T05:30:43;16.57;;;8.57;;
20976;SDS011;10647;51.016;3.720;2023-05-19T05:33:11;18.87;;;8.27;;
20976;SDS011;10647;51.016;3.720;2023-05-19T05:35:38;19.40;;;8.50;;
20976;SDS011;10647;51.016;3.720;2023-05-19T05:38:06;13.37;;;8.43;;
20976;SDS011;10647;51.016;3.720;2023-05-19T05:43:24;14.93;;;7.33;;
20976;SDS011;10647;51.016;3.720;2023-05-19T05:45:52;19.53;;;7.97;;
20976;SDS011;10647;51.016;3.720;2023-05-19T05:48:20;15.60;;;8.10;;
20976;SDS011;10647;51.016;3.720;2023-05-19T05:50:48;14.40;;;8.43;;
20976;SDS011;10647;51.016;3.720;2023-05-19T05:53:17;17.27;;;8.20;;
20976;SDS011;10647;51.016;3.720;2023-05-19T05:55:46;14.97;;;8.10;;
20976;SDS011;10647;51.016;3.720;2023-05-19T05:58:14;20.13;;;8.27;;
20976;SDS011;10647;51.016;3.720;2023-05-19T06:00:42;19.60;;;8.33;;
20976;SDS011;10647;51.016;3.720;2023-05-19T06:03:10;14.27;;;7.33;;
20976;SDS011;10647;51.016;3.720;2023-05-19T06:05:37;17.73;;;7.87;;
20976;SDS011;10647;51.016;3.720;2023-05-19T06:08:05;18.53;;;8.70;;
20976;SDS011;10647;51.016;3.720;2023-05-19T06:10:32;16.97;;;8.27;;
20976;SDS011;10647;51.016;3.720;2023-05-19T06:13:07;14.03;;;8.63;;
20976;SDS011;10647;51.016;3.720;2023-05-19T06:15:38;16.57;;;8.13;;
20976;SDS011;10647;51.016;3.720;2023-05-19T06:18:06;13.70;;;7.80;;
20976;SDS011;10647;51.016;3.720;2023-05-19T06:20:34;13.97;;;8.20;;
20976;SDS011;10647;51.016;3.720;2023-05-19T06:23:01;19.43;;;8.57;;
20976;SDS011;10647;51.016;3.720;2023-05-19T06:25:29;19.77;;;9.00;;
20976;SDS011;10647;51.016;3.720;2023-05-19T06:27:56;18.47;;;7.77;;
20976;SDS011;10647;51.016;3.720;2023-05-19T06:30:24;18.03;;;8.33;;
20976;SDS011;10647;51.016;3.720;2023-05-19T06:32:52;16.70;;;7.97;;
20976;SDS011;10647;51.016;3.720;2023-05-19T06:35:19;15.33;;;7.97;;
20976;SDS011;10647;51.016;3.720;2023-05-19T06:37:47;14.43;;;7.80;;
20976;SDS011;10647;51.016;3.720;2023-05-19T06:40:14;14.20;;;8.13;;
20976;SDS011;10647;51.016;3.720;2023-05-19T06:42:42;17.93;;;8.17;;
20976;SDS011;10647;51.016;3.720;2023-05-19T06:45:09;15.63;;;7.97;;
20976;SDS011;10647;51.016;3.720;2023-05-19T06:47:37;16.33;;;8.20;;
20976;SDS011;10647;51.016;3.720;2023-05-19T06:50:07;15.30;;;7.90;;
20976;SDS011;10647;51.016;3.720;2023-05-19T06:52:36;16.67;;;8.57;;
20976;SDS011;10647;51.016;3.720;2023-05-19T06:55:04;15.57;;;8.20;;
20976;SDS011;10647;51.016;3.720;2023-05-19T06:57:32;18.17;;;8.63;;
20976;SDS011;10647;51.016;3.720;2023-05-19T06:59:59;12.70;;;7.87;;
20976;SDS011;10647;51.016;3.720;2023-05-19T07:02:27;18.17;;;7.93;;
20976;SDS011;10647;51.016;3.720;2023-05-19T07:04:55;19.90;;;8.57;;
20976;SDS011;10647;51.016;3.720;2023-05-19T07:07:24;14.10;;;7.83;;
20976;SDS011;10647;51.016;3.720;2023-05-19T07:09:52;19.07;;;8.60;;
20976;SDS011;10647;51.016;3.720;2023-05-19T07:12:19;15.77;;;8.50;;
20976;SDS011;10647;51.016;3.720;2023-05-19T07:14:47;18.27;;;9.17;;
20976;SDS011;10647;51.016;3.720;2023-05-19T07:17:14;15.70;;;8.43;;
20976;SDS011;10647;51.016;3.720;2023-05-19T07:19:42;20.90;;;8.40;;
20976;SDS011;10647;51.016;3.720;2023-05-19T07:22:09;14.73;;;8.63;;
20976;SDS011;10647;51.016;3.720;2023-05-19T07:24:37;14.33;;;8.43;;
20976;SDS011;10647;51.016;3.720;2023-05-19T07:27:04;17.87;;;8.03;;
20976;SDS011;10647;51.016;3.720;2023-05-19T07:29:32;16.80;;;8.17;;
20976;SDS011;10647;51.016;3.720;2023-05-19T07:32:00;16.23;;;8.50;;
20976;SDS011;10647;51.016;3.720;2023-05-19T07:34:27;16.23;;;7.97;;
20976;SDS011;10647;51.016;3.720;2023-05-19T07:36:55;17.77;;;7.97;;
20976;SDS011;10647;51.016;3.720;2023-05-19T07:39:22;16.50;;;8.37;;
20976;SDS011;10647;51.016;3.720;2023-05-19T07:41:51;18.77;;;8.83;;
20976;SDS011;10647;51.016;3.720;2023-05-19T07:44:20;19.30;;;8.40;;
20976;SDS011;10647;51.016;3.720;2023-05-19T07:46:48;15.90;;;8.83;;
20976;SDS011;10647;51.016;3.720;2023-05-19T07:49:15;15.87;;;8.20;;
20976;SDS011;10647;51.016;3.720;2023-05-19T07:51:43;14.00;;;7.97;;
20976;SDS011;10647;51.016;3.720;2023-05-19T07:54:12;15.60;;;7.70;;
20976;SDS011;10647;51.016;3.720;2023-05-19T07:56:39;16.73;;;7.63;;
20976;SDS011;10647;51.016;3.720;2023-05-19T07:59:07;11.50;;;7.77;;
20976;SDS011;10647;51.016;3.720;2023-05-19T08:01:34;15.73;;;7.03;;
20976;SDS011;10647;51.016;3.720;2023-05-19T08:04:02;13.80;;;7.33;;
20976;SDS011;10647;51.016;3.720;2023-05-19T08:06:29;15.30;;;8.07;;
20976;SDS011;10647;51.016;3.720;2023-05-19T08:08:57;15.03;;;7.60;;
20976;SDS011;10647;51.016;3.720;2023-05-19T08:11:24;16.97;;;7.90;;
20976;SDS011;10647;51.016;3.720;2023-05-19T08:13:52;16.03;;;7.57;;
20976;SDS011;10647;51.016;3.720;2023-05-19T08:16:20;14.60;;;7.60;;
20976;SDS011;10647;51.016;3.720;2023-05-19T08:18:47;18.03;;;7.57;;
20976;SDS011;10647;51.016;3.720;2023-05-19T08:21:17;13.40;;;7.00;;
20976;SDS011;10647;51.016;3.720;2023-05-19T08:23:44;17.73;;;7.97;;
20976;SDS011;10647;51.016;3.720;2023-05-19T08:26:13;15.77;;;7.33;;
20976;SDS011;10647;51.016;3.720;2023-05-19T08:28:40;19.50;;;8.70;;
20976;SDS011;10647;51.016;3.720;2023-05-19T08:31:08;18.00;;;9.00;;
20976;SDS011;10647;51.016;3.720;2023-05-19T08:33:36;18.63;;;9.93;;
20976;SDS011;10647;51.016;3.720;2023-05-19T08:36:04;21.53;;;10.83;;
20976;SDS011;10647;51.016;3.720;2023-05-19T08:38:31;21.87;;;11.13;;
20976;SDS011;10647;51.016;3.720;2023-05-19T08:40:59;29.93;;;13.53;;
20976;SDS011;10647;51.016;3.720;2023-05-19T08:43:27;27.57;;;14.50;;
20976;SDS011;10647;51.016;3.720;2023-05-19T08:45:54;30.87;;;15.83;;
20976;SDS011;10647;51.016;3.720;2023-05-19T08:48:23;25.93;;;12.83;;
20976;SDS011;10647;51.016;3.720;2023-05-19T08:53:59;25.23;;;10.70;;
20976;SDS011;10647;51.016;3.720;2023-05-19T08:56:29;23.00;;;10.73;;
20976;SDS011;10647;51.016;3.720;2023-05-19T08:58:57;24.43;;;10.63;;
20976;SDS011;10647;51.016;3.720;2023-05-19T09:01:25;18.70;;;9.43;;
20976;SDS011;10647;51.016;3.720;2023-05-19T09:03:55;14.33;;;8.35;;
20976;SDS011;10647;51.016;3.720;2023-05-19T09:06:22;14.28;;;7.60;;
20976;SDS011;10647;51.016;3.720;2023-05-19T09:08:51;15.40;;;7.57;;
20976;SDS011;10647;51.016;3.720;2023-05-19T09:11:19;14.98;;;8.38;;
20976;SDS011;10647;51.016;3.720;2023-05-19T09:13:47;15.30;;;8.00;;
20976;SDS011;10647;51.016;3.720;2023-05-19T09:16:15;19.32;;;9.63;;
20976;SDS011;10647;51.016;3.720;2023-05-19T09:18:55;15.13;;;8.20;;
20976;SDS011;10647;51.016;3.720;2023-05-19T09:21:26;16.57;;;7.77;;
20976;SDS011;10647;51.016;3.720;2023-05-19T09:23:57;15.03;;;7.70;;
20976;SDS011;10647;51.016;3.720;2023-05-19T09:26:38;13.70;;;7.80;;
20976;SDS011;10647;51.016;3.720;2023-05-19T09:29:11;15.95;;;7.85;;
20976;SDS011;10647;51.016;3.720;2023-05-19T09:31:40;16.23;;;7.03;;
20976;SDS011;10647;51.016;3.720;2023-05-19T09:34:22;19.45;;;8.43;;
20976;SDS011;10647;51.016;3.720;2023-05-19T09:36:51;13.60;;;6.65;;
20976;SDS011;10647;51.016;3.720;2023-05-19T09:39:20;14.45;;;6.67;;
20976;SDS011;10647;51.016;3.720;2023-05-19T09:41:50;14.83;;;7.28;;
20976;SDS011;10647;51.016;3.720;2023-05-19T09:46:52;16.87;;;7.30;;
20976;SDS011;10647;51.016;3.720;2023-05-19T09:49:26;13.95;;;6.33;;
20976;SDS011;10647;51.016;3.720;2023-05-19T09:51:52;12.33;;;6.12;;
20976;SDS011;10647;51.016;3.720;2023-05-19T09:54:22;10.23;;;6.03;;
20976;SDS011;10647;51.016;3.720;2023-05-19T09:56:57;12.90;;;6.45;;
20976;SDS011;10647;51.016;3.720;2023-05-19T09:59:29;13.38;;;6.80;;
20976;SDS011;10647;51.016;3.720;2023-05-19T10:01:57;14.80;;;7.72;;
20976;SDS011;10647;51.016;3.720;2023-05-19T10:04:26;13.22;;;6.12;;
20976;SDS011;10647;51.016;3.720;2023-05-19T10:06:55;14.38;;;6.05;;
20976;SDS011;10647;51.016;3.720;2023-05-19T10:09:28;13.88;;;6.72;;
20976;SDS011;10647;51.016;3.720;2023-05-19T10:11:56;12.15;;;6.20;;
20976;SDS011;10647;51.016;3.720;2023-05-19T10:14:25;12.55;;;6.67;;
20976;SDS011;10647;51.016;3.720;2023-05-19T10:19:25;9.30;;;4.10;;
20976;SDS011;10647;51.016;3.720;2023-05-19T10:21:54;6.90;;;3.90;;
20976;SDS011;10647;51.016;3.720;2023-05-19T10:24:22;8.15;;;3.70;;
20976;SDS011;10647;51.016;3.720;2023-05-19T10:26:57;10.72;;;4.65;;
20976;SDS011;10647;51.016;3.720;2023-05-19T10:29:27;9.95;;;4.03;;
20976;SDS011;10647;51.016;3.720;2023-05-19T10:31:58;9.53;;;3.55;;
20976;SDS011;10647;51.016;3.720;2023-05-19T10:37:02;12.25;;;3.87;;
20976;SDS011;10647;51.016;3.720;2023-05-19T10:39:32;10.32;;;3.10;;
20976;SDS011;10647;51.016;3.720;2023-05-19T10:47:05;9.30;;;3.92;;
20976;SDS011;10647;51.016;3.720;2023-05-19T10:49:33;6.97;;;3.50;;
20976;SDS011;10647;51.016;3.720;2023-05-19T10:52:01;9.68;;;2.92;;
20976;SDS011;10647;51.016;3.720;2023-05-19T10:54:39;6.83;;;2.80;;
20976;SDS011;10647;51.016;3.720;2023-05-19T10:57:16;9.03;;;2.70;;
20976;SDS011;10647;51.016;3.720;2023-05-19T10:59:45;9.08;;;2.60;;
20976;SDS011;10647;51.016;3.720;2023-05-19T11:02:57;10.88;;;2.75;;
20976;SDS011;10647;51.016;3.720;2023-05-19T11:05:06;9.05;;;3.27;;
20976;SDS011;10647;51.016;3.720;2023-05-19T11:07:35;9.10;;;2.83;;
20976;SDS011;10647;51.016;3.720;2023-05-19T11:10:05;8.35;;;2.52;;
20976;SDS011;10647;51.016;3.720;2023-05-19T11:12:41;8.18;;;2.80;;
20976;SDS011;10647;51.016;3.720;2023-05-19T11:15:11;8.75;;;2.60;;
20976;SDS011;10647;51.016;3.720;2023-05-19T11:17:41;7.47;;;2.80;;
20976;SDS011;10647;51.016;3.720;2023-05-19T11:20:26;9.73;;;3.22;;
20976;SDS011;10647;51.016;3.720;2023-05-19T11:23:13;9.60;;;2.90;;
20976;SDS011;10647;51.016;3.720;2023-05-19T11:28:15;7.53;;;3.17;;
20976;SDS011;10647;51.016;3.720;2023-05-19T11:30:45;10.15;;;3.30;;
20976;SDS011;10647;51.016;3.720;2023-05-19T11:33:23;5.60;;;2.60;;
20976;SDS011;10647;51.016;3.720;2023-05-19T11:35:55;7.03;;;2.67;;
20976;SDS011;10647;51.016;3.720;2023-05-19T11:38:23;7.97;;;2.77;;
20976;SDS011;10647;51.016;3.720;2023-05-19T11:40:51;5.53;;;2.95;;
20976;SDS011;10647;51.016;3.720;2023-05-19T11:43:21;8.73;;;3.12;;
20976;SDS011;10647;51.016;3.720;2023-05-19T11:45:50;6.60;;;3.25;;
20976;SDS011;10647;51.016;3.720;2023-05-19T11:48:21;8.53;;;2.98;;
20976;SDS011;10647;51.016;3.720;2023-05-19T11:50:55;9.30;;;2.95;;
20976;SDS011;10647;51.016;3.720;2023-05-19T11:53:25;12.63;;;3.45;;
20976;SDS011;10647;51.016;3.720;2023-05-19T11:55:54;8.45;;;3.70;;
20976;SDS011;10647;51.016;3.720;2023-05-19T11:58:24;9.50;;;4.10;;
20976;SDS011;10647;51.016;3.720;2023-05-19T12:00:52;9.83;;;3.95;;
20976;SDS011;10647;51.016;3.720;2023-05-19T12:03:20;6.42;;;3.50;;
20976;SDS011;10647;51.016;3.720;2023-05-19T12:05:50;7.33;;;3.67;;
20976;SDS011;10647;51.016;3.720;2023-05-19T12:08:25;8.83;;;3.95;;
20976;SDS011;10647;51.016;3.720;2023-05-19T12:10:55;8.88;;;3.90;;
20976;SDS011;10647;51.016;3.720;2023-05-19T12:13:23;9.90;;;4.83;;
20976;SDS011;10647;51.016;3.720;2023-05-19T12:15:51;9.78;;;4.53;;
20976;SDS011;10647;51.016;3.720;2023-05-19T12:18:19;10.95;;;4.50;;
20976;SDS011;10647;51.016;3.720;2023-05-19T12:20:49;11.85;;;4.62;;
20976;SDS011;10647;51.016;3.720;2023-05-19T12:23:17;8.73;;;4.40;;
20976;SDS011;10647;51.016;3.720;2023-05-19T12:25:45;7.78;;;4.50;;
20976;SDS011;10647;51.016;3.720;2023-05-19T12:28:15;10.80;;;5.53;;
20976;SDS011;10647;51.016;3.720;2023-05-19T12:30:52;10.45;;;4.97;;
20976;SDS011;10647;51.016;3.720;2023-05-19T12:33:17;8.85;;;4.53;;
20976;SDS011;10647;51.016;3.720;2023-05-19T12:35:45;11.12;;;4.90;;
20976;SDS011;10647;51.016;3.720;2023-05-19T12:38:17;10.25;;;4.95;;
20976;SDS011;10647;51.016;3.720;2023-05-19T12:40:48;10.20;;;4.85;;
20976;SDS011;10647;51.016;3.720;2023-05-19T12:43:19;10.93;;;5.17;;
20976;SDS011;10647;51.016;3.720;2023-05-19T12:45:48;11.22;;;4.20;;
20976;SDS011;10647;51.016;3.720;2023-05-19T12:48:16;8.90;;;4.40;;
20976;SDS011;10647;51.016;3.720;2023-05-19T12:50:46;8.70;;;4.20;;
20976;SDS011;10647;51.016;3.720;2023-05-19T12:53:15;10.88;;;4.40;;
20976;SDS011;10647;51.016;3.720;2023-05-19T12:55:43;8.68;;;4.00;;
20976;SDS011;10647;51.016;3.720;2023-05-19T12:58:11;6.03;;;3.27;;
20976;SDS011;10647;51.016;3.720;2023-05-19T13:00:41;8.28;;;3.60;;
20976;SDS011;10647;51.016;3.720;2023-05-19T13:03:15;8.13;;;3.83;;
20976;SDS011;10647;51.016;3.720;2023-05-19T13:05:44;6.60;;;3.50;;
20976;SDS011;10647;51.016;3.720;2023-05-19T13:08:14;7.83;;;3.80;;
20976;SDS011;10647;51.016;3.720;2023-05-19T13:10:43;5.62;;;3.12;;
20976;SDS011;10647;51.016;3.720;2023-05-19T13:13:12;13.93;;;3.70;;
20976;SDS011;10647;51.016;3.720;2023-05-19T13:15:40;9.23;;;3.40;;
20976;SDS011;10647;51.016;3.720;2023-05-19T13:18:10;8.80;;;3.70;;
20976;SDS011;10647;51.016;3.720;2023-05-19T13:20:39;9.60;;;3.50;;
20976;SDS011;10647;51.016;3.720;2023-05-19T13:23:10;10.30;;;3.70;;
20976;SDS011;10647;51.016;3.720;2023-05-19T13:25:38;7.83;;;3.70;;
20976;SDS011;10647;51.016;3.720;2023-05-19T13:28:07;11.15;;;3.20;;
20976;SDS011;10647;51.016;3.720;2023-05-19T13:30:37;7.40;;;3.33;;
20976;SDS011;10647;51.016;3.720;2023-05-19T13:33:06;8.55;;;3.90;;
20976;SDS011;10647;51.016;3.720;2023-05-19T13:35:33;8.68;;;3.83;;
20976;SDS011;10647;51.016;3.720;2023-05-19T13:38:05;8.13;;;3.42;;
20976;SDS011;10647;51.016;3.720;2023-05-19T13:40:37;8.75;;;3.30;;
20976;SDS011;10647;51.016;3.720;2023-05-19T13:43:06;10.30;;;3.58;;
20976;SDS011;10647;51.016;3.720;2023-05-19T13:45:37;9.10;;;3.27;;
20976;SDS011;10647;51.016;3.720;2023-05-19T13:48:06;9.08;;;3.35;;
20976;SDS011;10647;51.016;3.720;2023-05-19T13:50:33;7.00;;;2.85;;
20976;SDS011;10647;51.016;3.720;2023-05-19T13:53:01;11.48;;;3.27;;
20976;SDS011;10647;51.016;3.720;2023-05-19T13:55:29;7.22;;;3.35;;
20976;SDS011;10647;51.016;3.720;2023-05-19T13:57:57;11.08;;;3.17;;
20976;SDS011;10647;51.016;3.720;2023-05-19T14:00:25;8.03;;;3.33;;
20976;SDS011;10647;51.016;3.720;2023-05-19T14:02:53;9.15;;;3.12;;
20976;SDS011;10647;51.016;3.720;2023-05-19T14:05:21;7.85;;;3.08;;
20976;SDS011;10647;51.016;3.720;2023-05-19T14:07:48;7.55;;;2.95;;
20976;SDS011;10647;51.016;3.720;2023-05-19T14:10:16;8.18;;;3.27;;
20976;SDS011;10647;51.016;3.720;2023-05-19T14:12:43;4.65;;;2.60;;
20976;SDS011;10647;51.016;3.720;2023-05-19T14:15:13;7.47;;;3.10;;
20976;SDS011;10647;51.016;3.720;2023-05-19T14:17:46;5.53;;;3.12;;
20976;SDS011;10647;51.016;3.720;2023-05-19T14:20:17;8.45;;;3.33;;
20976;SDS011;10647;51.016;3.720;2023-05-19T14:22:47;9.28;;;3.58;;
20976;SDS011;10647;51.016;3.720;2023-05-19T14:25:20;7.95;;;3.25;;
20976;SDS011;10647;51.016;3.720;2023-05-19T14:27:49;9.23;;;3.30;;
20976;SDS011;10647;51.016;3.720;2023-05-19T14:30:18;7.25;;;3.20;;
20976;SDS011;10647;51.016;3.720;2023-05-19T14:32:46;7.17;;;3.00;;
20976;SDS011;10647;51.016;3.720;2023-05-19T14:35:19;5.92;;;3.15;;
20976;SDS011;10647;51.016;3.720;2023-05-19T14:40:26;7.28;;;3.42;;
20976;SDS011;10647;51.016;3.720;2023-05-19T14:42:53;7.65;;;3.22;;
20976;SDS011;10647;51.016;3.720;2023-05-19T14:45:20;7.90;;;3.35;;
20976;SDS011;10647;51.016;3.720;2023-05-19T14:47:48;6.67;;;3.22;;
20976;SDS011;10647;51.016;3.720;2023-05-19T14:50:15;11.05;;;3.25;;
20976;SDS011;10647;51.016;3.720;2023-05-19T14:52:43;5.42;;;3.30;;
20976;SDS011;10647;51.016;3.720;2023-05-19T14:55:10;8.50;;;3.37;;
20976;SDS011;10647;51.016;3.720;2023-05-19T14:57:39;8.60;;;3.27;;
20976;SDS011;10647;51.016;3.720;2023-05-19T15:00:07;8.85;;;3.72;;
20976;SDS011;10647;51.016;3.720;2023-05-19T15:02:37;10.00;;;3.85;;
20976;SDS011;10647;51.016;3.720;2023-05-19T15:05:04;6.05;;;2.85;;
20976;SDS011;10647;51.016;3.720;2023-05-19T15:07:32;9.78;;;3.00;;
20976;SDS011;10647;51.016;3.720;2023-05-19T15:10:00;8.98;;;3.25;;
20976;SDS011;10647;51.016;3.720;2023-05-19T15:12:27;7.60;;;3.40;;
20976;SDS011;10647;51.016;3.720;2023-05-19T15:14:55;9.08;;;3.58;;
20976;SDS011;10647;51.016;3.720;2023-05-19T15:17:22;8.95;;;3.40;;
20976;SDS011;10647;51.016;3.720;2023-05-19T15:19:50;7.40;;;3.33;;
20976;SDS011;10647;51.016;3.720;2023-05-19T15:22:18;9.73;;;3.17;;
20976;SDS011;10647;51.016;3.720;2023-05-19T15:24:45;7.62;;;3.25;;
20976;SDS011;10647;51.016;3.720;2023-05-19T15:27:13;9.05;;;3.87;;
20976;SDS011;10647;51.016;3.720;2023-05-19T15:29:40;10.90;;;3.72;;
20976;SDS011;10647;51.016;3.720;2023-05-19T15:32:08;11.75;;;4.10;;
20976;SDS011;10647;51.016;3.720;2023-05-19T15:34:35;7.85;;;3.20;;
20976;SDS011;10647;51.016;3.720;2023-05-19T15:37:03;12.30;;;3.70;;
20976;SDS011;10647;51.016;3.720;2023-05-19T15:39:31;7.55;;;3.20;;
20976;SDS011;10647;51.016;3.720;2023-05-19T15:41:59;11.22;;;4.65;;
20976;SDS011;10647;51.016;3.720;2023-05-19T15:44:27;9.35;;;4.20;;
20976;SDS011;10647;51.016;3.720;2023-05-19T15:46:54;10.90;;;3.80;;